createdAt,value
2022-12-25T00:02:09.205Z,14.73
2022-12-25T00:04:37.808Z,21.97
2022-12-25T00:07:05.086Z,22.00
2022-12-25T00:09:32.395Z,27.97
2022-12-25T00:14:49.752Z,17.47
2022-12-25T00:17:17.107Z,26.77
2022-12-25T00:19:45.846Z,20.13
2022-12-25T00:28:52.939Z,17.17
2022-12-25T00:31:20.842Z,22.23
2022-12-25T00:33:48.747Z,22.90
2022-12-25T00:36:18.508Z,19.03
2022-12-25T00:38:46.388Z,24.00
2022-12-25T00:44:13.912Z,20.30
2022-12-25T00:46:41.906Z,20.00
2022-12-25T00:49:09.628Z,18.67
2022-12-25T00:58:56.027Z,23.80
2022-12-25T01:01:23.378Z,17.43
2022-12-25T01:03:50.882Z,19.27
2022-12-25T01:06:18.195Z,15.23
2022-12-25T01:08:45.476Z,28.03
2022-12-25T01:14:04.100Z,16.83
2022-12-25T01:16:31.966Z,23.83
2022-12-25T01:18:59.239Z,26.70
2022-12-25T01:28:36.187Z,23.70
2022-12-25T01:31:05.705Z,18.03
2022-12-25T01:33:32.945Z,15.80
2022-12-25T01:36:00.238Z,17.57
2022-12-25T01:38:27.576Z,21.80
2022-12-25T01:41:10.564Z,21.30
2022-12-25T01:43:57.375Z,13.97
2022-12-25T01:46:26.033Z,20.00
2022-12-25T01:48:54.243Z,15.83
2022-12-25T01:51:46.029Z,22.40
2022-12-25T01:54:41.939Z,22.00
2022-12-25T01:57:54.151Z,24.80
2022-12-25T02:00:21.650Z,29.87
2022-12-25T02:02:50.828Z,24.07
2022-12-25T02:05:21.476Z,19.33
2022-12-25T02:07:49.059Z,24.53
2022-12-25T02:13:05.872Z,18.70
2022-12-25T02:15:37.352Z,14.17
2022-12-25T02:18:09.725Z,25.07
2022-12-25T02:20:41.632Z,12.10
2022-12-25T02:23:20.938Z,19.03
2022-12-25T02:26:13.318Z,15.07
2022-12-25T02:28:52.771Z,11.50
2022-12-25T02:31:28.230Z,20.43
2022-12-25T02:33:57.773Z,17.07
2022-12-25T02:36:27.302Z,11.13
2022-12-25T02:38:56.616Z,19.80
2022-12-25T02:41:30.577Z,19.83
2022-12-25T02:44:00.603Z,21.20
2022-12-25T02:46:29.841Z,15.23
2022-12-25T02:48:58.224Z,19.50
2022-12-25T02:51:27.764Z,21.47
2022-12-25T02:53:57.032Z,26.57
2022-12-25T02:56:25.810Z,17.10
2022-12-25T02:58:53.344Z,21.90
2022-12-25T03:01:23.763Z,23.93
2022-12-25T03:03:51.762Z,17.77
2022-12-25T03:06:20.549Z,27.83
2022-12-25T03:08:50.381Z,25.13
2022-12-25T03:15:06.308Z,21.50
2022-12-25T03:17:35.460Z,20.33
2022-12-25T03:20:03.023Z,21.13
2022-12-25T03:22:31.203Z,22.67
2022-12-25T03:24:58.471Z,22.03
2022-12-25T03:27:26.619Z,22.57
2022-12-25T03:32:47.772Z,18.67
2022-12-25T03:35:18.788Z,20.43
2022-12-25T03:37:52.577Z,24.50
2022-12-25T03:47:16.579Z,22.47
2022-12-25T03:49:47.730Z,23.63
2022-12-25T03:52:16.952Z,21.13
2022-12-25T03:54:44.980Z,21.80
2022-12-25T03:57:12.524Z,22.13
2022-12-25T03:59:54.908Z,25.53
2022-12-25T04:02:22.290Z,20.87
2022-12-25T04:04:51.216Z,30.93
2022-12-25T04:07:18.458Z,21.30
2022-12-25T04:16:55.515Z,24.77
2022-12-25T04:19:22.887Z,26.33
2022-12-25T04:21:51.641Z,23.47
2022-12-25T04:24:18.848Z,12.50
2022-12-25T04:26:46.124Z,23.63
2022-12-25T04:32:02.651Z,20.70
2022-12-25T04:34:29.941Z,19.70
2022-12-25T04:36:58.855Z,22.90
2022-12-25T04:39:26.295Z,16.60
2022-12-25T04:41:53.979Z,28.90
2022-12-25T04:51:16.507Z,20.17
2022-12-25T04:53:46.002Z,19.00
2022-12-25T04:56:13.633Z,22.13
2022-12-25T04:58:40.861Z,20.80
2022-12-25T05:01:08.365Z,16.23
2022-12-25T05:03:44.541Z,15.37
2022-12-25T05:06:12.143Z,15.50
2022-12-25T05:08:39.396Z,21.37
2022-12-25T05:11:09.261Z,20.97
2022-12-25T05:13:36.669Z,14.37
2022-12-25T05:19:43.239Z,16.43
2022-12-25T05:22:10.679Z,11.93
2022-12-25T05:24:37.927Z,15.00
2022-12-25T05:27:06.553Z,13.33
2022-12-25T05:29:33.762Z,12.47
2022-12-25T05:32:00.990Z,17.13
2022-12-25T05:34:28.473Z,10.10
2022-12-25T05:36:55.695Z,10.70
2022-12-25T05:39:22.954Z,9.53
2022-12-25T05:41:50.199Z,10.33
2022-12-25T05:44:18.772Z,15.23
2022-12-25T05:46:46.126Z,14.40
2022-12-25T05:55:26.498Z,16.03
2022-12-25T05:57:53.825Z,14.77
2022-12-25T06:00:22.602Z,17.87
2022-12-25T06:02:50.002Z,20.03
2022-12-25T06:05:17.440Z,16.27
2022-12-25T06:10:27.749Z,18.23
2022-12-25T06:12:55.310Z,16.03
2022-12-25T06:15:23.926Z,21.07
2022-12-25T06:18:16.377Z,17.33
2022-12-25T06:24:28.381Z,12.20
2022-12-25T06:26:55.628Z,14.63
2022-12-25T06:29:22.860Z,12.40
2022-12-25T06:31:51.503Z,15.87
2022-12-25T06:34:18.745Z,20.90
2022-12-25T06:36:45.993Z,17.10
2022-12-25T06:39:25.768Z,16.57
2022-12-25T06:41:53.025Z,16.13
2022-12-25T06:44:20.274Z,15.13
2022-12-25T06:46:47.540Z,19.27
2022-12-25T06:49:34.388Z,20.43
2022-12-25T06:52:22.462Z,19.20
2022-12-25T06:54:51.031Z,17.60
2022-12-25T06:57:18.383Z,19.57
2022-12-25T06:59:51.280Z,22.33
2022-12-25T07:02:23.141Z,17.73
2022-12-25T07:04:50.656Z,29.17
2022-12-25T07:10:01.958Z,28.73
2022-12-25T07:12:29.220Z,23.90
2022-12-25T07:14:56.518Z,28.27
2022-12-25T07:24:07.461Z,27.57
2022-12-25T07:26:36.008Z,22.60
2022-12-25T07:29:03.239Z,22.63
2022-12-25T07:31:30.773Z,23.17
2022-12-25T07:33:58.026Z,19.97
2022-12-25T07:41:51.874Z,20.23
2022-12-25T07:44:19.156Z,16.57
2022-12-25T07:53:54.819Z,15.90
2022-12-25T07:56:22.111Z,25.80
2022-12-25T07:58:50.734Z,26.87
2022-12-25T08:01:18.881Z,21.67
2022-12-25T08:03:49.343Z,19.27
2022-12-25T08:06:16.754Z,23.17
2022-12-25T08:08:43.988Z,22.23
2022-12-25T08:11:11.619Z,19.80
2022-12-25T08:13:38.994Z,15.97
2022-12-25T08:16:08.863Z,12.13
2022-12-25T08:18:36.703Z,9.43
2022-12-25T08:23:47.535Z,11.63
2022-12-25T08:26:16.051Z,23.17
2022-12-25T08:28:43.453Z,18.50
2022-12-25T08:31:14.978Z,18.10
2022-12-25T08:33:42.519Z,23.60
2022-12-25T08:36:26.184Z,23.07
2022-12-25T08:39:21.186Z,17.80
2022-12-25T08:42:07.469Z,11.13
2022-12-25T08:44:34.665Z,13.23
2022-12-25T08:47:03.809Z,24.33
2022-12-25T08:49:31.384Z,23.70
2022-12-25T08:51:59.133Z,22.03
2022-12-25T08:54:26.578Z,22.80
2022-12-25T08:56:58.591Z,12.27
2022-12-25T08:59:29.619Z,18.07
2022-12-25T09:01:56.920Z,20.93
2022-12-25T09:04:25.616Z,26.87
2022-12-25T09:06:52.870Z,16.03
2022-12-25T09:09:20.081Z,11.47
2022-12-25T09:11:47.288Z,8.73
2022-12-25T09:14:14.554Z,10.40
2022-12-25T09:16:41.773Z,5.47
2022-12-25T09:19:09.003Z,6.13
2022-12-25T09:21:37.556Z,6.17
2022-12-25T09:24:04.966Z,7.80
2022-12-25T09:26:32.245Z,9.67
2022-12-25T09:28:59.444Z,9.27
2022-12-25T09:31:26.782Z,7.80
2022-12-25T09:33:56.550Z,14.70
2022-12-25T09:36:24.193Z,10.17
2022-12-25T09:38:53.101Z,8.10
2022-12-25T09:41:23.400Z,9.07
2022-12-25T09:43:52.106Z,10.80
2022-12-25T09:46:20.072Z,6.67
2022-12-25T09:48:51.974Z,8.80
2022-12-25T09:51:19.285Z,7.97
2022-12-25T09:53:50.143Z,10.10
2022-12-25T09:56:20.237Z,9.70
2022-12-25T09:58:47.492Z,11.43
2022-12-25T10:01:17.755Z,7.47
2022-12-25T10:03:54.262Z,9.17
2022-12-25T10:06:23.105Z,11.17
2022-12-25T10:08:59.418Z,7.93
2022-12-25T10:11:39.278Z,10.10
2022-12-25T10:14:11.563Z,8.97
2022-12-25T10:16:43.578Z,9.70
2022-12-25T10:19:17.241Z,10.00
2022-12-25T10:25:53.915Z,9.40
2022-12-25T10:28:26.175Z,11.13
2022-12-25T10:30:53.943Z,10.70
2022-12-25T10:33:21.289Z,10.30
2022-12-25T10:35:48.681Z,12.60
2022-12-25T10:38:16.844Z,8.23
2022-12-25T10:43:32.200Z,10.93
2022-12-25T10:45:59.664Z,9.70
2022-12-25T10:48:28.858Z,8.27
2022-12-25T10:50:56.646Z,8.07
2022-12-25T10:53:24.743Z,8.17
2022-12-25T10:59:44.930Z,9.93
2022-12-25T11:02:16.393Z,6.67
2022-12-25T11:04:43.793Z,11.83
2022-12-25T11:07:15.673Z,6.07
2022-12-25T11:09:49.527Z,5.90
2022-12-25T11:12:18.383Z,6.57
2022-12-25T11:14:53.744Z,7.47
2022-12-25T11:17:22.635Z,6.27
2022-12-25T11:19:52.663Z,5.97
2022-12-25T11:22:19.927Z,5.07
2022-12-25T11:24:47.169Z,10.13
2022-12-25T11:27:20.045Z,9.60
2022-12-25T11:32:28.285Z,4.93
2022-12-25T11:34:56.030Z,8.50
2022-12-25T11:37:26.261Z,9.27
2022-12-25T11:39:53.514Z,8.00
2022-12-25T11:42:22.765Z,5.53
2022-12-25T11:45:08.791Z,9.27
2022-12-25T11:48:00.057Z,7.27
2022-12-25T11:50:49.019Z,7.37
2022-12-25T11:53:19.514Z,6.17
2022-12-25T11:55:47.900Z,9.70
2022-12-25T11:58:17.345Z,6.20
2022-12-25T12:00:51.718Z,9.47
2022-12-25T12:03:21.631Z,9.60
2022-12-25T12:05:52.897Z,7.40
2022-12-25T12:08:20.304Z,8.40
2022-12-25T12:10:56.003Z,12.07
2022-12-25T12:13:32.829Z,12.80
2022-12-25T12:16:01.797Z,5.37
2022-12-25T12:18:32.653Z,11.70
2022-12-25T12:21:06.453Z,15.83
2022-12-25T12:23:35.944Z,8.47
2022-12-25T12:26:04.038Z,7.97
2022-12-25T12:28:40.209Z,8.10
2022-12-25T12:31:08.644Z,9.17
2022-12-25T12:33:38.534Z,9.27
2022-12-25T12:36:10.383Z,9.93
2022-12-25T12:38:37.623Z,6.97
2022-12-25T12:41:06.318Z,7.93
2022-12-25T12:43:36.652Z,11.23
2022-12-25T12:46:08.931Z,9.33
2022-12-25T12:48:41.165Z,14.63
2022-12-25T12:51:10.922Z,9.27
2022-12-25T12:53:39.265Z,6.00
2022-12-25T12:56:10.631Z,9.67
2022-12-25T12:58:40.345Z,9.17
2022-12-25T13:01:12.587Z,6.57
2022-12-25T13:03:57.314Z,14.40
2022-12-25T13:06:28.391Z,10.07
2022-12-25T13:09:00.945Z,9.00
2022-12-25T13:11:29.166Z,11.97
2022-12-25T13:13:57.963Z,12.37
2022-12-25T13:16:27.917Z,8.20
2022-12-25T13:18:56.292Z,9.73
2022-12-25T13:21:24.566Z,10.70
2022-12-25T13:23:58.344Z,8.50
2022-12-25T13:26:25.594Z,7.70
2022-12-25T13:28:53.009Z,4.23
2022-12-25T13:31:45.741Z,9.60
2022-12-25T13:34:30.364Z,10.47
2022-12-25T13:36:58.524Z,7.90
2022-12-25T13:39:27.548Z,9.90
2022-12-25T13:41:55.396Z,20.07
2022-12-25T13:44:24.895Z,11.00
2022-12-25T13:46:52.218Z,12.30
2022-12-25T13:49:20.499Z,14.27
2022-12-25T13:51:48.613Z,12.47
2022-12-25T13:54:17.136Z,9.33
2022-12-25T13:56:48.210Z,10.90
2022-12-25T13:59:16.803Z,10.60
2022-12-25T14:01:44.663Z,11.90
2022-12-25T14:04:15.024Z,12.30
2022-12-25T14:06:42.409Z,8.10
2022-12-25T14:09:10.781Z,12.60
2022-12-25T14:11:38.924Z,10.93
2022-12-25T14:14:12.743Z,12.43
2022-12-25T14:16:41.793Z,10.43
2022-12-25T14:19:26.174Z,8.30
2022-12-25T14:21:55.919Z,12.47
2022-12-25T14:24:24.387Z,12.97
2022-12-25T14:26:56.980Z,14.73
2022-12-25T14:29:38.045Z,14.63
2022-12-25T14:32:31.145Z,11.80
2022-12-25T14:35:23.096Z,15.57
2022-12-25T14:37:52.102Z,13.37
2022-12-25T14:40:21.754Z,14.07
2022-12-25T14:42:55.248Z,12.80
2022-12-25T14:45:28.656Z,16.70
2022-12-25T14:47:56.796Z,14.80
2022-12-25T14:50:34.615Z,15.33
2022-12-25T14:53:01.939Z,15.97
2022-12-25T14:55:29.896Z,15.13
2022-12-25T14:57:58.295Z,15.73
2022-12-25T15:00:59.760Z,18.40
2022-12-25T15:03:46.948Z,14.70
2022-12-25T15:06:22.738Z,15.37
2022-12-25T15:08:56.831Z,15.97
2022-12-25T15:11:24.078Z,11.80
2022-12-25T15:13:51.435Z,9.13
2022-12-25T15:16:22.306Z,17.07
2022-12-25T15:18:50.416Z,13.00
2022-12-25T15:21:23.878Z,14.63
2022-12-25T15:23:51.201Z,13.97
2022-12-25T15:26:18.442Z,12.30
2022-12-25T15:28:45.731Z,7.73
2022-12-25T15:31:18.546Z,14.43
2022-12-25T15:36:23.320Z,13.90
2022-12-25T15:38:50.972Z,11.03
2022-12-25T15:41:19.872Z,11.10
2022-12-25T15:43:47.062Z,9.23
2022-12-25T15:46:14.428Z,10.70
2022-12-25T15:49:00.471Z,14.33
2022-12-25T15:51:49.503Z,11.03
2022-12-25T15:54:30.523Z,18.07
2022-12-25T15:56:59.142Z,16.37
2022-12-25T15:59:26.395Z,13.00
2022-12-25T16:01:54.559Z,11.53
2022-12-25T16:04:22.349Z,13.87
2022-12-25T16:06:49.760Z,13.30
2022-12-25T16:09:17.877Z,15.80
2022-12-25T16:11:46.527Z,13.23
2022-12-25T16:14:14.019Z,10.43
2022-12-25T16:16:41.510Z,8.93
2022-12-25T16:19:21.316Z,14.03
2022-12-25T16:22:13.611Z,15.23
2022-12-25T16:24:46.442Z,14.30
2022-12-25T16:27:15.434Z,14.17
2022-12-25T16:29:42.731Z,20.30
2022-12-25T16:32:11.645Z,19.13
2022-12-25T16:34:40.519Z,14.20
2022-12-25T16:37:07.929Z,16.50
2022-12-25T16:39:35.214Z,24.50
2022-12-25T16:42:02.699Z,28.50
2022-12-25T16:44:31.762Z,24.73
2022-12-25T16:46:59.088Z,24.87
2022-12-25T16:49:38.529Z,25.63
2022-12-25T16:52:14.731Z,20.37
2022-12-25T16:54:42.299Z,17.53
2022-12-25T16:57:09.538Z,16.47
2022-12-25T16:59:38.135Z,14.37
2022-12-25T17:02:05.417Z,16.57
2022-12-25T17:04:34.134Z,17.03
2022-12-25T17:09:59.885Z,17.00
2022-12-25T17:12:27.181Z,14.50
2022-12-25T17:14:55.803Z,15.30
2022-12-25T17:17:23.141Z,14.20
2022-12-25T17:19:50.407Z,17.83
2022-12-25T17:22:17.619Z,15.67
2022-12-25T17:28:26.863Z,11.97
2022-12-25T17:30:55.638Z,13.87
2022-12-25T17:33:23.030Z,17.30
2022-12-25T17:35:50.335Z,18.33
2022-12-25T17:38:17.577Z,18.53
2022-12-25T17:40:44.813Z,15.97
2022-12-25T17:43:17.335Z,13.87
2022-12-25T17:45:47.945Z,14.17
2022-12-25T17:48:16.944Z,16.27
2022-12-25T17:50:44.262Z,18.17
2022-12-25T17:53:11.594Z,18.07
2022-12-25T17:55:39.577Z,19.57
2022-12-25T17:58:30.815Z,20.40
2022-12-25T18:04:43.267Z,20.00
2022-12-25T18:07:10.562Z,20.57
2022-12-25T18:09:37.861Z,18.97
2022-12-25T18:12:05.430Z,19.63
2022-12-25T18:14:32.679Z,18.87
2022-12-25T18:17:00.011Z,19.30
2022-12-25T18:19:27.261Z,19.00
2022-12-25T18:21:55.861Z,19.17
2022-12-25T18:24:23.099Z,18.20
2022-12-25T18:26:59.532Z,17.93
2022-12-25T18:33:04.803Z,20.30
2022-12-25T18:35:32.184Z,21.30
2022-12-25T18:38:01.046Z,19.40
2022-12-25T18:40:28.379Z,23.83
2022-12-25T18:43:02.707Z,26.20
2022-12-25T18:45:30.673Z,21.20
2022-12-25T18:47:58.317Z,21.43
2022-12-25T18:50:26.742Z,22.73
2022-12-25T18:52:54.141Z,22.90
2022-12-25T18:55:22.752Z,22.60
2022-12-25T18:57:50.063Z,21.40
2022-12-25T19:00:17.635Z,21.17
2022-12-25T19:03:00.393Z,25.27
2022-12-25T19:05:40.068Z,24.33
2022-12-25T19:08:07.362Z,22.97
2022-12-25T19:10:38.675Z,24.03
2022-12-25T19:13:06.641Z,29.83
2022-12-25T19:15:34.059Z,23.20
2022-12-25T19:18:06.361Z,19.80
2022-12-25T19:20:35.159Z,14.90
2022-12-25T19:23:02.413Z,27.17
2022-12-25T19:25:29.647Z,24.10
2022-12-25T19:27:58.293Z,24.90
2022-12-25T19:30:25.495Z,25.97
2022-12-25T19:32:57.632Z,26.93
2022-12-25T19:35:24.863Z,26.00
2022-12-25T19:37:52.118Z,23.83
2022-12-25T19:40:19.390Z,25.93
2022-12-25T19:43:08.215Z,28.57
2022-12-25T19:45:55.474Z,31.37
2022-12-25T19:48:22.772Z,30.87
2022-12-25T19:50:50.410Z,34.00
2022-12-25T19:53:17.674Z,30.83
2022-12-25T19:55:45.025Z,30.97
2022-12-25T19:58:15.529Z,35.03
2022-12-25T20:03:33.476Z,36.73
2022-12-25T20:06:01.849Z,36.80
2022-12-25T20:08:29.542Z,34.93
2022-12-25T20:11:12.491Z,31.43
2022-12-25T20:16:56.976Z,27.70
2022-12-25T20:19:25.779Z,32.50
2022-12-25T20:21:54.085Z,27.63
2022-12-25T20:24:23.251Z,28.00
2022-12-25T20:26:55.249Z,27.53
2022-12-25T20:29:26.054Z,23.97
2022-12-25T20:31:53.742Z,23.90
2022-12-25T20:34:21.126Z,27.23
2022-12-25T20:36:49.847Z,23.90
2022-12-25T20:39:17.129Z,24.87
2022-12-25T20:41:44.410Z,22.00
2022-12-25T20:44:11.961Z,17.30
2022-12-25T20:46:45.557Z,12.97
2022-12-25T20:49:18.841Z,22.20
2022-12-25T20:51:46.168Z,22.87
2022-12-25T20:54:14.874Z,21.83
2022-12-25T20:56:42.362Z,23.33
2022-12-25T20:59:10.031Z,19.17
2022-12-25T21:01:37.319Z,22.37
2022-12-25T21:04:04.728Z,21.23
2022-12-25T21:06:32.124Z,18.13
2022-12-25T21:08:59.757Z,23.43
2022-12-25T21:11:28.947Z,19.17
2022-12-25T21:13:56.609Z,18.70
2022-12-25T21:16:24.607Z,18.43
2022-12-25T21:18:52.855Z,17.77
2022-12-25T21:21:32.118Z,20.17
2022-12-25T21:24:24.984Z,15.60
2022-12-25T21:26:53.634Z,12.80
2022-12-25T21:29:20.846Z,15.07
2022-12-25T21:31:48.119Z,15.80
2022-12-25T21:34:15.358Z,18.90
2022-12-25T21:36:42.647Z,18.60
2022-12-25T21:39:11.709Z,15.90
2022-12-25T21:42:26.466Z,15.27
2022-12-25T21:44:53.812Z,13.77
2022-12-25T21:47:21.395Z,17.93
2022-12-25T21:53:42.497Z,15.50
2022-12-25T21:56:29.083Z,16.23
2022-12-25T21:58:58.669Z,13.33
2022-12-25T22:01:25.970Z,14.17
2022-12-25T22:03:53.357Z,14.77
2022-12-25T22:06:21.848Z,13.03
2022-12-25T22:11:44.043Z,14.77
2022-12-25T22:14:16.266Z,15.27
2022-12-25T22:16:43.502Z,18.47
2022-12-25T22:19:10.716Z,17.50
2022-12-25T22:21:37.941Z,18.77
2022-12-25T22:24:11.543Z,17.33
2022-12-25T22:26:49.274Z,18.03
2022-12-25T22:29:23.549Z,19.57
2022-12-25T22:31:50.926Z,19.37
2022-12-25T22:34:18.188Z,22.30
2022-12-25T22:36:45.434Z,20.67
2022-12-25T22:39:12.844Z,19.67
2022-12-25T22:41:40.162Z,18.20
2022-12-25T22:44:16.947Z,22.20
2022-12-25T22:46:46.469Z,19.70
2022-12-25T22:49:13.812Z,19.47
2022-12-25T22:51:41.065Z,17.37
2022-12-25T22:54:08.717Z,19.23
2022-12-25T22:56:36.093Z,20.20
2022-12-25T22:59:03.356Z,19.00
2022-12-25T23:01:30.685Z,18.03
2022-12-25T23:04:02.201Z,17.20
2022-12-25T23:06:29.769Z,16.37
2022-12-25T23:08:56.995Z,16.20
2022-12-25T23:11:24.537Z,19.27
2022-12-25T23:13:51.761Z,20.00
2022-12-25T23:16:19.125Z,17.97
2022-12-25T23:18:46.333Z,18.63
2022-12-25T23:21:15.422Z,18.87
2022-12-25T23:23:42.666Z,17.60
2022-12-25T23:26:09.979Z,17.33
2022-12-25T23:31:26.030Z,17.67
2022-12-25T23:33:53.624Z,18.63
2022-12-25T23:36:22.486Z,21.50
2022-12-25T23:38:50.627Z,19.90
2022-12-25T23:41:17.850Z,19.17
2022-12-25T23:46:38.735Z,16.93
2022-12-25T23:49:24.644Z,15.77
2022-12-25T23:51:53.451Z,15.00
2022-12-25T23:54:21.979Z,15.17
2022-12-25T23:56:49.238Z,15.93
2022-12-25T23:59:25.095Z,13.70
